SXAET LGKM-LGLM
Flight info
| Callsign | SXAET |
|---|---|
| Flight time | 0h 49m |
| Altitude | 5500 |
| Route | DCT 4056N02425E DCT PONTO DCT 4055N02437E DCT 4051N02442E DCT 4040N02447E DCT |
| Aircraft | DA40/L-SDFGRY/SB2 |
Departure
| Time | 2026-04-27 05:22 |
|---|---|
| Airport | Kavala Amygdaleon Lydia Airfield (LGKM) |
Arrival
| Time | 2026-04-27 06:11 |
|---|---|
| Airport | Limnos Airport (LGLM) |
| Time | Latitude | Longitude | Altitude | Speed | Heading |
|---|---|---|---|---|---|
| 2026-04-27 05:08 | 40.97104 | 24.34677 | 204 ft | 0 kts | 319° |
| 2026-04-27 05:14 | 40.97116 | 24.34664 | 207 ft | 4 kts | 311° |
| 2026-04-27 05:14 | 40.97115 | 24.34643 | 207 ft | 3 kts | 229° |
| 2026-04-27 05:14 | 40.97089 | 24.34608 | 204 ft | 7 kts | 231° |
| 2026-04-27 05:14 | 40.97092 | 24.34572 | 203 ft | 6 kts | 319° |
| 2026-04-27 05:15 | 40.97144 | 24.34515 | 203 ft | 13 kts | 320° |
| 2026-04-27 05:15 | 40.97225 | 24.34425 | 203 ft | 16 kts | 320° |
| 2026-04-27 05:15 | 40.97308 | 24.34332 | 203 ft | 16 kts | 320° |
| 2026-04-27 05:15 | 40.97391 | 24.34240 | 203 ft | 15 kts | 319° |
| 2026-04-27 05:16 | 40.97449 | 24.34144 | 208 ft | 11 kts | 274° |
| 2026-04-27 05:16 | 40.97449 | 24.34052 | 204 ft | 0 kts | 300° |
| 2026-04-27 05:19 | 40.97453 | 24.34041 | 207 ft | 4 kts | 280° |
| 2026-04-27 05:19 | 40.97460 | 24.33960 | 209 ft | 11 kts | 295° |
| 2026-04-27 05:19 | 40.97538 | 24.33859 | 204 ft | 21 kts | 318° |
| 2026-04-27 05:20 | 40.97657 | 24.33715 | 203 ft | 23 kts | 319° |
| 2026-04-27 05:20 | 40.97736 | 24.33650 | 201 ft | 8 kts | 280° |
| 2026-04-27 05:20 | 40.97724 | 24.33634 | 205 ft | 3 kts | 141° |
| 2026-04-27 05:20 | 40.97634 | 24.33751 | 208 ft | 40 kts | 139° |
| 2026-04-27 05:21 | 40.97333 | 24.34102 | 269 ft | 65 kts | 135° |
| 2026-04-27 05:21 | 40.96979 | 24.34474 | 456 ft | 67 kts | 137° |
| 2026-04-27 05:21 | 40.96553 | 24.34760 | 602 ft | 80 kts | 178° |
| 2026-04-27 05:21 | 40.96111 | 24.34223 | 730 ft | 99 kts | 236° |
| 2026-04-27 05:22 | 40.95845 | 24.33368 | 986 ft | 95 kts | 248° |
| 2026-04-27 05:22 | 40.95608 | 24.32536 | 1113 ft | 101 kts | 246° |
| 2026-04-27 05:22 | 40.95653 | 24.31670 | 1305 ft | 96 kts | 313° |
| 2026-04-27 05:22 | 40.96057 | 24.30965 | 1463 ft | 97 kts | 315° |
| 2026-04-27 05:23 | 40.96468 | 24.30268 | 1657 ft | 96 kts | 313° |
| 2026-04-27 05:23 | 40.96874 | 24.29567 | 1859 ft | 96 kts | 317° |
| 2026-04-27 05:23 | 40.97328 | 24.28876 | 2015 ft | 100 kts | 326° |
| 2026-04-27 05:23 | 40.97908 | 24.28645 | 2195 ft | 84 kts | 23° |
| 2026-04-27 05:24 | 40.98374 | 24.29036 | 2362 ft | 79 kts | 47° |
| 2026-04-27 05:24 | 40.98787 | 24.29492 | 2563 ft | 78 kts | 48° |
| 2026-04-27 05:24 | 40.99230 | 24.30024 | 2643 ft | 88 kts | 51° |
| 2026-04-27 05:24 | 40.99535 | 24.30668 | 2830 ft | 84 kts | 89° |
| 2026-04-27 05:25 | 40.99291 | 24.31366 | 2972 ft | 92 kts | 130° |
| 2026-04-27 05:25 | 40.98827 | 24.31990 | 3043 ft | 98 kts | 137° |
| 2026-04-27 05:25 | 40.98286 | 24.32596 | 3044 ft | 107 kts | 140° |
| 2026-04-27 05:25 | 40.97725 | 24.33250 | 3045 ft | 110 kts | 132° |
| 2026-04-27 05:26 | 40.97141 | 24.33942 | 3017 ft | 112 kts | 131° |
| 2026-04-27 05:26 | 40.96597 | 24.34633 | 3034 ft | 108 kts | 128° |
| 2026-04-27 05:26 | 40.96099 | 24.35391 | 3013 ft | 110 kts | 123° |
| 2026-04-27 05:26 | 40.95565 | 24.36135 | 3011 ft | 111 kts | 128° |
| 2026-04-27 05:27 | 40.95019 | 24.36869 | 3001 ft | 112 kts | 128° |
| 2026-04-27 05:27 | 40.94484 | 24.37595 | 3000 ft | 108 kts | 128° |
| 2026-04-27 05:27 | 40.93957 | 24.38321 | 3004 ft | 111 kts | 129° |
| 2026-04-27 05:27 | 40.93401 | 24.39059 | 3006 ft | 118 kts | 128° |
| 2026-04-27 05:28 | 40.92842 | 24.39820 | 2990 ft | 110 kts | 108° |
| 2026-04-27 05:28 | 40.92809 | 24.40749 | 2989 ft | 99 kts | 75° |
| 2026-04-27 05:28 | 40.92973 | 24.41629 | 2988 ft | 98 kts | 74° |
| 2026-04-27 05:28 | 40.93142 | 24.42486 | 2987 ft | 95 kts | 73° |
| 2026-04-27 05:29 | 40.93329 | 24.43311 | 2985 ft | 93 kts | 70° |
| 2026-04-27 05:29 | 40.93543 | 24.44121 | 2981 ft | 93 kts | 71° |
| 2026-04-27 05:29 | 40.93759 | 24.44926 | 2980 ft | 93 kts | 70° |
| 2026-04-27 05:29 | 40.93977 | 24.45739 | 2994 ft | 94 kts | 70° |
| 2026-04-27 05:30 | 40.94185 | 24.46540 | 2988 ft | 93 kts | 70° |
| 2026-04-27 05:30 | 40.94388 | 24.47345 | 2990 ft | 91 kts | 70° |
| 2026-04-27 05:30 | 40.94581 | 24.48126 | 2982 ft | 89 kts | 71° |
| 2026-04-27 05:30 | 40.94802 | 24.48920 | 2992 ft | 95 kts | 70° |
| 2026-04-27 05:31 | 40.95038 | 24.49755 | 3020 ft | 99 kts | 70° |
| 2026-04-27 05:31 | 40.95270 | 24.50624 | 3021 ft | 101 kts | 71° |
| 2026-04-27 05:31 | 40.95511 | 24.51501 | 3020 ft | 102 kts | 70° |
| 2026-04-27 05:31 | 40.95750 | 24.52382 | 3020 ft | 102 kts | 70° |
| 2026-04-27 05:32 | 40.95996 | 24.53274 | 3019 ft | 104 kts | 70° |
| 2026-04-27 05:32 | 40.96247 | 24.54174 | 3024 ft | 105 kts | 70° |
| 2026-04-27 05:32 | 40.96497 | 24.55096 | 3024 ft | 107 kts | 70° |
| 2026-04-27 05:32 | 40.96657 | 24.55712 | 3023 ft | 107 kts | 75° |
| 2026-04-27 05:33 | 40.96315 | 24.56904 | 3019 ft | 116 kts | 135° |
| 2026-04-27 05:33 | 40.95591 | 24.57379 | 3024 ft | 118 kts | 147° |
| 2026-04-27 05:33 | 40.95089 | 24.57686 | 3024 ft | 118 kts | 147° |
| 2026-04-27 05:33 | 40.94103 | 24.58289 | 3021 ft | 118 kts | 147° |
| 2026-04-27 05:34 | 40.93357 | 24.58743 | 3024 ft | 118 kts | 147° |
| 2026-04-27 05:34 | 40.92853 | 24.59050 | 3024 ft | 119 kts | 147° |
| 2026-04-27 05:34 | 40.92102 | 24.59508 | 3024 ft | 119 kts | 147° |
| 2026-04-27 05:34 | 40.91351 | 24.59936 | 3024 ft | 118 kts | 144° |
| 2026-04-27 05:35 | 40.90602 | 24.60364 | 3022 ft | 116 kts | 141° |
| 2026-04-27 05:35 | 40.89901 | 24.60836 | 3018 ft | 107 kts | 126° |
| 2026-04-27 05:35 | 40.89345 | 24.61480 | 3016 ft | 106 kts | 125° |
| 2026-04-27 05:35 | 40.88796 | 24.62124 | 3016 ft | 105 kts | 126° |
| 2026-04-27 05:36 | 40.88350 | 24.62857 | 3017 ft | 102 kts | 115° |
| 2026-04-27 05:36 | 40.87975 | 24.63626 | 3018 ft | 97 kts | 107° |
| 2026-04-27 05:36 | 40.87681 | 24.64427 | 3019 ft | 97 kts | 104° |
| 2026-04-27 05:36 | 40.87389 | 24.65231 | 3019 ft | 96 kts | 105° |
| 2026-04-27 05:37 | 40.87088 | 24.66016 | 3015 ft | 95 kts | 106° |
| 2026-04-27 05:37 | 40.86807 | 24.66810 | 3014 ft | 95 kts | 103° |
| 2026-04-27 05:37 | 40.86527 | 24.67606 | 3017 ft | 95 kts | 104° |
| 2026-04-27 05:37 | 40.86249 | 24.68413 | 3015 ft | 97 kts | 105° |
| 2026-04-27 05:38 | 40.85981 | 24.69203 | 3139 ft | 90 kts | 106° |
| 2026-04-27 05:38 | 40.85687 | 24.69847 | 3466 ft | 83 kts | 121° |
| 2026-04-27 05:38 | 40.85088 | 24.70145 | 3653 ft | 100 kts | 158° |
| 2026-04-27 05:38 | 40.84386 | 24.70275 | 3825 ft | 102 kts | 161° |
| 2026-04-27 05:39 | 40.83689 | 24.70424 | 4006 ft | 104 kts | 157° |
| 2026-04-27 05:39 | 40.82954 | 24.70512 | 4188 ft | 107 kts | 159° |
| 2026-04-27 05:39 | 40.82220 | 24.70645 | 4363 ft | 106 kts | 159° |
| 2026-04-27 05:39 | 40.81481 | 24.70813 | 4526 ft | 108 kts | 159° |
| 2026-04-27 05:40 | 40.80745 | 24.71016 | 4716 ft | 108 kts | 159° |
| 2026-04-27 05:40 | 40.80006 | 24.71243 | 4891 ft | 110 kts | 159° |
| 2026-04-27 05:40 | 40.79270 | 24.71495 | 5064 ft | 111 kts | 160° |
| 2026-04-27 05:40 | 40.78552 | 24.71786 | 5292 ft | 105 kts | 159° |
| 2026-04-27 05:41 | 40.77855 | 24.72098 | 5490 ft | 105 kts | 158° |
| 2026-04-27 05:41 | 40.77148 | 24.72418 | 5657 ft | 108 kts | 159° |
| 2026-04-27 05:41 | 40.76433 | 24.72759 | 5853 ft | 108 kts | 159° |
| 2026-04-27 05:41 | 40.75732 | 24.73119 | 6052 ft | 108 kts | 159° |
| 2026-04-27 05:42 | 40.75045 | 24.73477 | 6277 ft | 105 kts | 159° |
| 2026-04-27 05:42 | 40.74373 | 24.73835 | 6445 ft | 104 kts | 159° |
| 2026-04-27 05:42 | 40.73700 | 24.74207 | 6602 ft | 106 kts | 159° |
| 2026-04-27 05:42 | 40.73016 | 24.74616 | 6750 ft | 109 kts | 158° |
| 2026-04-27 05:43 | 40.72325 | 24.75047 | 6910 ft | 110 kts | 158° |
| 2026-04-27 05:43 | 40.71640 | 24.75473 | 7106 ft | 108 kts | 159° |
| 2026-04-27 05:43 | 40.70937 | 24.75775 | 7280 ft | 105 kts | 181° |
| 2026-04-27 05:43 | 40.70204 | 24.75849 | 7451 ft | 107 kts | 183° |
| 2026-04-27 05:44 | 40.69463 | 24.75976 | 7619 ft | 109 kts | 182° |
| 2026-04-27 05:44 | 40.68689 | 24.76126 | 7712 ft | 118 kts | 173° |
| 2026-04-27 05:44 | 40.67916 | 24.76615 | 7726 ft | 127 kts | 155° |
| 2026-04-27 05:44 | 40.67107 | 24.77171 | 7727 ft | 135 kts | 155° |
| 2026-04-27 05:45 | 40.66264 | 24.77761 | 7730 ft | 138 kts | 154° |
| 2026-04-27 05:45 | 40.65416 | 24.78338 | 7728 ft | 136 kts | 155° |
| 2026-04-27 05:45 | 40.64581 | 24.78921 | 7728 ft | 136 kts | 155° |
| 2026-04-27 05:45 | 40.63747 | 24.79517 | 7729 ft | 136 kts | 155° |
| 2026-04-27 05:46 | 40.62905 | 24.80092 | 7729 ft | 135 kts | 156° |
| 2026-04-27 05:46 | 40.62072 | 24.80677 | 7729 ft | 136 kts | 155° |
| 2026-04-27 05:46 | 40.61230 | 24.81218 | 7729 ft | 134 kts | 157° |
| 2026-04-27 05:46 | 40.60396 | 24.81736 | 7729 ft | 134 kts | 158° |
| 2026-04-27 05:47 | 40.59557 | 24.82277 | 7727 ft | 135 kts | 158° |
| 2026-04-27 05:47 | 40.58717 | 24.82828 | 7720 ft | 135 kts | 157° |
| 2026-04-27 05:47 | 40.57874 | 24.83360 | 7720 ft | 134 kts | 158° |
| 2026-04-27 05:47 | 40.57034 | 24.83898 | 7720 ft | 134 kts | 157° |
| 2026-04-27 05:48 | 40.56193 | 24.84446 | 7722 ft | 136 kts | 158° |
| 2026-04-27 05:48 | 40.55350 | 24.85014 | 7722 ft | 137 kts | 157° |
| 2026-04-27 05:48 | 40.54502 | 24.85584 | 7723 ft | 137 kts | 157° |
| 2026-04-27 05:48 | 40.53650 | 24.86139 | 7723 ft | 136 kts | 159° |
| 2026-04-27 05:49 | 40.52798 | 24.86685 | 7724 ft | 135 kts | 158° |
| 2026-04-27 05:49 | 40.51951 | 24.87218 | 7723 ft | 135 kts | 159° |
| 2026-04-27 05:49 | 40.51106 | 24.87771 | 7723 ft | 136 kts | 158° |
| 2026-04-27 05:49 | 40.50261 | 24.88324 | 7724 ft | 135 kts | 157° |
| 2026-04-27 05:50 | 40.49413 | 24.88849 | 7719 ft | 134 kts | 158° |
| 2026-04-27 05:50 | 40.48570 | 24.89374 | 7719 ft | 134 kts | 157° |
| 2026-04-27 05:50 | 40.47733 | 24.89902 | 7718 ft | 134 kts | 158° |
| 2026-04-27 05:50 | 40.46899 | 24.90431 | 7718 ft | 133 kts | 159° |
| 2026-04-27 05:51 | 40.46079 | 24.90970 | 7717 ft | 134 kts | 158° |
| 2026-04-27 05:51 | 40.45242 | 24.91517 | 7719 ft | 134 kts | 158° |
| 2026-04-27 05:51 | 40.44404 | 24.92041 | 7716 ft | 133 kts | 158° |
| 2026-04-27 05:51 | 40.43568 | 24.92566 | 7716 ft | 134 kts | 157° |
| 2026-04-27 05:52 | 40.42729 | 24.93087 | 7716 ft | 133 kts | 158° |
| 2026-04-27 05:52 | 40.41891 | 24.93618 | 7717 ft | 134 kts | 157° |
| 2026-04-27 05:52 | 40.41046 | 24.94154 | 7717 ft | 135 kts | 157° |
| 2026-04-27 05:52 | 40.40200 | 24.94685 | 7719 ft | 134 kts | 157° |
| 2026-04-27 05:53 | 40.39354 | 24.95198 | 7708 ft | 134 kts | 157° |
| 2026-04-27 05:53 | 40.38508 | 24.95715 | 7705 ft | 134 kts | 158° |
| 2026-04-27 05:53 | 40.37670 | 24.96239 | 7707 ft | 133 kts | 157° |
| 2026-04-27 05:53 | 40.36830 | 24.96759 | 7707 ft | 133 kts | 156° |
| 2026-04-27 05:54 | 40.35990 | 24.97266 | 7710 ft | 133 kts | 157° |
| 2026-04-27 05:54 | 40.35151 | 24.97769 | 7709 ft | 132 kts | 157° |
| 2026-04-27 05:54 | 40.34320 | 24.98266 | 7708 ft | 131 kts | 158° |
| 2026-04-27 05:54 | 40.33488 | 24.98778 | 7710 ft | 132 kts | 157° |
| 2026-04-27 05:55 | 40.32664 | 24.99290 | 7710 ft | 133 kts | 156° |
| 2026-04-27 05:55 | 40.31814 | 24.99821 | 7711 ft | 134 kts | 157° |
| 2026-04-27 05:55 | 40.30981 | 25.00327 | 7710 ft | 134 kts | 157° |
| 2026-04-27 05:55 | 40.30138 | 25.00846 | 7707 ft | 134 kts | 157° |
| 2026-04-27 05:56 | 40.29291 | 25.01373 | 7708 ft | 135 kts | 157° |
| 2026-04-27 05:56 | 40.28431 | 25.01890 | 7703 ft | 136 kts | 157° |
| 2026-04-27 05:56 | 40.27557 | 25.02352 | 7704 ft | 136 kts | 161° |
| 2026-04-27 05:56 | 40.26670 | 25.02813 | 7704 ft | 137 kts | 160° |
| 2026-04-27 05:57 | 40.25782 | 25.03269 | 7705 ft | 136 kts | 160° |
| 2026-04-27 05:57 | 40.24898 | 25.03718 | 7704 ft | 136 kts | 161° |
| 2026-04-27 05:57 | 40.24025 | 25.04170 | 7704 ft | 137 kts | 161° |
| 2026-04-27 05:57 | 40.23124 | 25.04640 | 7706 ft | 137 kts | 160° |
| 2026-04-27 05:58 | 40.22237 | 25.05089 | 7705 ft | 137 kts | 161° |
| 2026-04-27 05:58 | 40.21355 | 25.05538 | 7706 ft | 136 kts | 160° |
| 2026-04-27 05:58 | 40.20482 | 25.05978 | 7697 ft | 136 kts | 160° |
| 2026-04-27 05:58 | 40.19587 | 25.06425 | 7697 ft | 136 kts | 160° |
| 2026-04-27 05:59 | 40.18717 | 25.06857 | 7695 ft | 136 kts | 161° |
| 2026-04-27 05:59 | 40.17830 | 25.07310 | 7697 ft | 137 kts | 160° |
| 2026-04-27 05:59 | 40.16938 | 25.07769 | 7697 ft | 138 kts | 160° |
| 2026-04-27 05:59 | 40.16044 | 25.08223 | 7698 ft | 137 kts | 160° |
| 2026-04-27 06:00 | 40.14267 | 25.09121 | 7697 ft | 136 kts | 161° |
| 2026-04-27 06:00 | 40.13381 | 25.09576 | 7696 ft | 137 kts | 160° |
| 2026-04-27 06:00 | 40.12490 | 25.10041 | 7697 ft | 139 kts | 160° |
| 2026-04-27 06:01 | 40.11591 | 25.10512 | 7699 ft | 139 kts | 160° |
| 2026-04-27 06:01 | 40.10689 | 25.10979 | 7701 ft | 139 kts | 160° |
| 2026-04-27 06:01 | 40.09789 | 25.11437 | 7699 ft | 138 kts | 160° |
| 2026-04-27 06:01 | 40.08900 | 25.11883 | 7699 ft | 137 kts | 161° |
| 2026-04-27 06:02 | 40.08014 | 25.12328 | 7697 ft | 137 kts | 161° |
| 2026-04-27 06:02 | 40.07186 | 25.12948 | 7668 ft | 138 kts | 147° |
| 2026-04-27 06:02 | 40.06373 | 25.13602 | 7670 ft | 136 kts | 149° |
| 2026-04-27 06:02 | 40.05552 | 25.14247 | 7549 ft | 139 kts | 150° |
| 2026-04-27 06:03 | 40.04718 | 25.14906 | 7322 ft | 141 kts | 150° |
| 2026-04-27 06:03 | 40.03879 | 25.15568 | 7080 ft | 141 kts | 150° |
| 2026-04-27 06:03 | 40.03043 | 25.16234 | 6835 ft | 138 kts | 150° |
| 2026-04-27 06:03 | 40.02225 | 25.16881 | 6346 ft | 138 kts | 149° |
| 2026-04-27 06:04 | 40.01397 | 25.17509 | 5865 ft | 138 kts | 149° |
| 2026-04-27 06:04 | 40.00541 | 25.18095 | 5374 ft | 139 kts | 150° |
| 2026-04-27 06:04 | 39.99676 | 25.18643 | 4945 ft | 140 kts | 149° |
| 2026-04-27 06:04 | 39.98786 | 25.19126 | 4505 ft | 141 kts | 149° |
| 2026-04-27 06:05 | 39.97866 | 25.19561 | 4060 ft | 141 kts | 148° |
| 2026-04-27 06:05 | 39.96997 | 25.20070 | 3643 ft | 132 kts | 138° |
| 2026-04-27 06:05 | 39.96245 | 25.20722 | 3216 ft | 128 kts | 133° |
| 2026-04-27 06:05 | 39.95511 | 25.21297 | 2979 ft | 116 kts | 136° |
| 2026-04-27 06:06 | 39.94862 | 25.21813 | 2792 ft | 102 kts | 130° |
| 2026-04-27 06:06 | 39.94351 | 25.22377 | 2604 ft | 92 kts | 126° |
| 2026-04-27 06:06 | 39.93865 | 25.22909 | 2356 ft | 91 kts | 126° |
| 2026-04-27 06:06 | 39.93367 | 25.23415 | 2111 ft | 91 kts | 126° |
| 2026-04-27 06:07 | 39.92858 | 25.23934 | 1863 ft | 94 kts | 126° |
| 2026-04-27 06:07 | 39.92350 | 25.24460 | 1603 ft | 93 kts | 126° |
| 2026-04-27 06:07 | 39.91843 | 25.24985 | 1351 ft | 94 kts | 126° |
| 2026-04-27 06:07 | 39.91331 | 25.25483 | 1187 ft | 93 kts | 135° |
| 2026-04-27 06:08 | 39.90646 | 25.25540 | 1059 ft | 111 kts | 181° |
| 2026-04-27 06:08 | 39.89988 | 25.24939 | 993 ft | 121 kts | 223° |
| 2026-04-27 06:08 | 39.89470 | 25.24102 | 987 ft | 116 kts | 219° |
| 2026-04-27 06:08 | 39.88947 | 25.23321 | 981 ft | 112 kts | 220° |
| 2026-04-27 06:09 | 39.88450 | 25.22607 | 984 ft | 104 kts | 215° |
| 2026-04-27 06:09 | 39.87949 | 25.21897 | 973 ft | 112 kts | 226° |
| 2026-04-27 06:09 | 39.87847 | 25.20969 | 937 ft | 100 kts | 301° |
| 2026-04-27 06:09 | 39.88218 | 25.20337 | 897 ft | 77 kts | 351° |
| 2026-04-27 06:10 | 39.88662 | 25.20294 | 806 ft | 59 kts | 23° |
| 2026-04-27 06:10 | 39.89061 | 25.20521 | 642 ft | 62 kts | 39° |
| 2026-04-27 06:10 | 39.89421 | 25.20854 | 422 ft | 64 kts | 45° |
| 2026-04-27 06:10 | 39.89753 | 25.21255 | 294 ft | 65 kts | 46° |
| 2026-04-27 06:11 | 39.90067 | 25.21643 | 229 ft | 57 kts | 45° |
| 2026-04-27 06:11 | 39.90356 | 25.22003 | 155 ft | 58 kts | 44° |
| 2026-04-27 06:11 | 39.90640 | 25.22337 | 84 ft | 51 kts | 46° |
| 2026-04-27 06:11 | 39.90886 | 25.22643 | 19 ft | 46 kts | 45° |
| 2026-04-27 06:12 | 39.91054 | 25.22852 | 16 ft | 27 kts | 40° |
| 2026-04-27 06:12 | 39.91141 | 25.22922 | 16 ft | 2 kts | 351° |
| 2026-04-27 06:12 | 39.91163 | 25.22898 | 16 ft | 6 kts | 298° |
| 2026-04-27 06:12 | 39.91200 | 25.22802 | 16 ft | 16 kts | 297° |
| 2026-04-27 06:13 | 39.91177 | 25.22681 | 17 ft | 20 kts | 224° |
| 2026-04-27 06:13 | 39.91059 | 25.22535 | 17 ft | 25 kts | 223° |
| 2026-04-27 06:13 | 39.90926 | 25.22370 | 15 ft | 27 kts | 225° |
| 2026-04-27 06:13 | 39.90807 | 25.22285 | 14 ft | 16 kts | 148° |
| 2026-04-27 06:14 | 39.90741 | 25.22319 | 14 ft | 7 kts | 133° |
| 2026-04-27 06:14 | 39.90740 | 25.22329 | 14 ft | 0 kts | 34° |
| 2026-04-27 06:17 | 39.90758 | 25.22348 | 14 ft | 0 kts | 58° |